• Join FlightAware (Why Join?)
  • Login
  • US Flag 
05:44PM EDT


 

Airport Tracker/Info


-or-


 

Live Flight TrackerFlight Track Log ✈ SWA1533 ✈ 27-Oct-2013 ✈ KDEN - KLAX

Flight Track Log - Related Links

Times and Time Zones

All times are in EDT time to prevent confusion due to time zone crossing. See the SWA1533 flight status page for this flight to view local times or setup timezone preferences in your user account.

Time Position Orientation Groundspeed Altitude Reporting Facility
EDT Latitude Longitude Course Direction KTS MPH feet Rate Location/Type
10:14PM 39.8333 -104.7833 256° West 204 235 7,300  Level Denver TRACON
10:15PM 39.8167 -104.8667 255° West 247 284 9,300 1,680 Climbing Denver TRACON
10:16PM 39.7833 -104.9667 247° West 299 344 10,700 2,040 Climbing Denver TRACON
10:17PM 39.7386 -105.1050 247° West 361 415 13,900 3,000 Climbing Denver Center
10:18PM 39.6944 -105.2275 245° Southwest 374 430 17,400 3,120 Climbing Denver Center
10:19PM 39.6172 -105.3778 256° West  Level Estimated
10:19PM 39.6500 -105.3511 245° Southwest 379 436 20,400  Level Denver Center
10:20PM 39.6011 -105.4850 245° Southwest 386 444 23,200 2,340 Climbing Denver Center
10:21PM 39.5556 -105.6100 245° Southwest 392 451 25,200 1,740 Climbing Denver Center
10:22PM 39.5169 -105.7458 250° West 405 466 26,800 1,500 Climbing Denver Center
10:23PM 39.4794 -105.8842 251° West 406 467 28,400 1,560 Climbing Denver Center
10:24PM 39.4408 -106.0269 251° West 419 482 30,100 2,160 Climbing Denver Center
10:25PM 39.3922 -106.1944 249° West 418 481 32,900 2,460 Climbing Denver Center
10:26PM 39.3547 -106.3219 249° West 405 466 35,200 2,100 Climbing Denver Center
10:27PM 39.3189 -106.4600 251° West 374 430 37,300 1,260 Climbing Denver Center
10:28PM 39.2839 -106.5789 249° West 370 426 37,800 360 Climbing Denver Center
10:29PM 39.2475 -106.7008 249° West 377 434 38,100 120 Climbing Denver Center
10:30PM 39.1753 -106.8253 233° Southwest 386 444 38,100  Level Denver Center
10:31PM 39.1086 -106.9272 230° Southwest 389 448 38,100  Level Denver Center
10:32PM 39.0342 -107.0444 231° Southwest 382 440 38,100 -60 Level Denver Center
10:33PM 38.9706 -107.1436 230° Southwest 378 435 38,000  Descending Denver Center
10:34PM 38.9053 -107.2444 230° Southwest 381 438 38,100  Climbing Denver Center
10:35PM 38.8314 -107.3586 230° Southwest 373 429 38,100  Level Denver Center
10:36PM 38.7733 -107.4617 234° Southwest 372 428 38,100  Level Denver Center
10:37PM 38.7142 -107.5894 239° Southwest 374 430 38,100  Level Denver Center
10:38PM 38.6636 -107.6953 239° Southwest 368 423 38,100  Level Denver Center
10:39PM 38.6119 -107.8036 239° Southwest 369 425 38,100 -60 Level Denver Center
10:40PM 38.5522 -107.9294 239° Southwest 369 425 38,000  Descending Denver Center
10:41PM 38.5017 -108.0347 238° Southwest 365 420 38,100  Climbing Denver Center
10:42PM 38.4442 -108.1539 238° Southwest 356 410 38,100  Level Denver Center
10:43PM 38.3939 -108.2594 239° Southwest 362 417 38,100  Level Denver Center
10:45PM 38.3350 -108.3797 238° Southwest 358 412 38,100  Level Denver Center
10:46PM 38.2831 -108.4847 238° Southwest 363 418 38,100  Level Denver Center
10:47PM 38.2333 -108.5894 239° Southwest 362 417 38,100  Level Denver Center
10:48PM 38.1742 -108.7128 239° Southwest 364 419 38,100  Level Denver Center
10:49PM 38.1231 -108.8161 238° Southwest 361 415 38,100  Level Denver Center
10:50PM 38.0631 -108.9372 238° Southwest 361 415 38,100  Level Denver Center
10:51PM 38.0133 -109.0356 237° Southwest 359 413 38,100  Level Denver Center
10:52PM 37.9539 -109.1556 238° Southwest 360 414 38,100  Level Denver Center
10:53PM 37.9036 -109.2581 238° Southwest 360 414 38,100  Level Denver Center
10:54PM 37.8531 -109.3592 238° Southwest 357 411 38,100  Level Denver Center
10:55PM 37.7947 -109.4758 238° Southwest 353 406 38,100  Level Denver Center
10:56PM 37.7436 -109.5764 237° Southwest 354 407 38,100  Level Denver Center
10:57PM 37.6839 -109.6956 238° Southwest 358 412 38,100  Level Denver Center
10:58PM 37.6331 -109.7950 237° Southwest 354 407 38,100  Level Denver Center
10:59PM 37.5822 -109.8967 238° Southwest 356 410 38,100  Level Denver Center
11:00PM 37.5231 -110.0119 237° Southwest 353 406 38,100  Level Denver Center
11:01PM 37.4722 -110.1119 237° Southwest 353 406 38,100  Level Denver Center
11:02PM 37.4142 -110.2253 237° Southwest 353 406 38,100  Level Denver Center
11:03PM 37.3608 -110.3281 237° Southwest 352 405 38,100  Level Denver Center
11:04PM 37.3081 -110.4317 237° Southwest 353 406 38,100  Level Denver Center
11:05PM 37.2544 -110.5350 237° Southwest 354 407 38,100  Level Denver Center
11:06PM 37.2006 -110.6389 237° Southwest 356 410 38,100  Level Denver Center
11:07PM 37.1469 -110.7425 237° Southwest 355 409 38,100  Level Denver Center
11:08PM 37.0933 -110.8461 237° Southwest 354 407 38,100  Level Denver Center
11:09PM 37.0381 -110.9500 236° Southwest 358 412 38,100  Level Denver Center
11:10PM 36.9722 -111.0750 237° Southwest 359 413 38,100  Level Denver Center
11:11PM 36.9178 -111.1786 237° Southwest 357 411 38,100 -60 Level Denver Center
11:12PM 36.8628 -111.2819 236° Southwest 358 412 38,000  Descending Denver Center
11:13PM 36.8083 -111.3853 237° Southwest 357 411 38,100  Climbing Denver Center
11:14PM 36.7556 -111.4869 237° Southwest 353 406 38,100  Level Denver Center
11:15PM 36.6997 -111.5889 236° Southwest 353 406 38,100  Level Denver Center
11:16PM 36.6444 -111.6931 237° Southwest 357 411 38,100  Level Denver Center
11:17PM 36.5889 -111.7967 236° Southwest 359 413 38,100 -60 Level Denver Center
11:18PM 36.5328 -111.9017 236° Southwest 362 417 38,000  Descending Denver Center
11:19PM 36.4767 -112.0036 236° Southwest 359 413 38,100  Climbing Denver Center
11:20PM 36.4219 -112.1072 237° Southwest 358 412 38,000  Descending Denver Center
11:21PM 36.3531 -112.2311 235° Southwest 362 417 38,100  Climbing Denver Center
11:23PM 36.2747 -112.3742 236° Southwest 354 407 38,000  Descending Los Angeles Center
11:24PM 36.2211 -112.4722 236° Southwest 347 399 38,100  Climbing Los Angeles Center
11:25PM 36.1656 -112.5731 236° Southwest 351 404 38,000  Descending Los Angeles Center
11:26PM 36.1108 -112.6731 236° Southwest 351 404 38,100  Climbing Los Angeles Center
11:27PM 36.0564 -112.7714 236° Southwest 348 400 38,100  Level Los Angeles Center
11:28PM 35.9900 -112.8908 236° Southwest 351 404 38,100 -60 Level Los Angeles Center
11:29PM 35.9336 -112.9925 236° Southwest 357 411 38,000 -60 Descending Los Angeles Center
11:30PM 35.8767 -113.0933 235° Southwest 360 414 38,000  Level Los Angeles Center
11:31PM 35.8206 -113.1961 236° Southwest 364 419 38,000  Level Los Angeles Center
11:32PM 35.7744 -113.2775 235° Southwest 366 421 38,000  Level Los Angeles Center
11:33PM 35.7061 -113.3986 235° Southwest 363 418 38,000  Level Los Angeles Center
11:34PM 35.6497 -113.5000 236° Southwest 364 419 38,000  Level Los Angeles Center
11:35PM 35.5911 -113.6256 240° Southwest 356 410 38,000  Level Los Angeles Center
11:36PM 35.5483 -113.7350 244° Southwest 358 412 38,000  Level Los Angeles Center
11:37PM 35.5042 -113.8436 243° Southwest 358 412 38,000  Level Los Angeles Center
11:38PM 35.4608 -113.9497 243° Southwest 354 407 38,000  Level Los Angeles Center
11:39PM 35.4353 -114.0628 255° West 345 397 38,100  Climbing Los Angeles Center
11:40PM 35.4369 -114.1842 271° West 353 406 38,000  Descending Los Angeles Center
11:41PM 35.4392 -114.3264 271° West 350 403 38,100  Climbing Los Angeles Center
11:42PM 35.4442 -114.4444 273° West 347 399 38,000  Descending Los Angeles Center
11:43PM 35.4689 -114.5606 285° West 352 405 38,100  Climbing Los Angeles Center
11:44PM 35.5156 -114.6669 298° West 368 423 38,100  Level Los Angeles Center
11:45PM 35.6308 -114.6903 351° North 441 507 38,100 -60 Level Los Angeles Center
11:46PM 35.7400 -114.5875 37° Northeast 513 590 38,000  Descending Los Angeles Center
11:47PM 35.7767 -114.4158 75° East 527 606 38,100  Climbing Los Angeles Center
11:48PM 35.7492 -114.2503 102° East 502 578 38,100 -60 Level Los Angeles Center
11:50PM 35.6283 -114.1761 153° Southeast 427 491 38,000 -60 Descending Los Angeles Center
11:51PM 35.5233 -114.2211 199° South 335 386 38,000  Level Los Angeles Center
11:52PM 35.4683 -114.3158 235° Southwest 313 360 38,000  Level Los Angeles Center
11:53PM 35.4253 -114.4075 240° Southwest 310 357 38,000  Level Los Angeles Center
11:54PM 35.3806 -114.5033 240° Southwest 320 368 38,100  Climbing Los Angeles Center
11:55PM 35.3319 -114.6044 240° Southwest 336 387 38,100 -60 Level Los Angeles Center
11:56PM 35.2836 -114.7075 240° Southwest 345 397 38,000  Descending Los Angeles Center
11:57PM 35.2364 -114.8078 240° Southwest 341 392 38,100  Climbing Los Angeles Center
11:58PM 35.1889 -114.9075 240° Southwest 338 389 38,000  Descending Los Angeles Center
11:59PM 35.1422 -115.0056 240° Southwest 336 387 38,100 -540 Climbing Los Angeles Center
12:00AM 35.0872 -115.1228 240° Southwest 331 381 37,000 -1,080 Descending Los Angeles Center
12:01AM 35.0394 -115.2214 239° Southwest 336 387 36,000 -960 Descending Los Angeles Center
12:02AM 34.9953 -115.3128 239° Southwest 333 383 35,100 -840 Descending Los Angeles Center
12:03AM 34.9583 -115.3903 240° Southwest 332 382 34,300 -1,080 Descending Los Angeles Center
12:04AM 34.8992 -115.5125 239° Southwest 328 377 33,000 -1,140 Descending Los Angeles Center
12:05AM 34.8575 -115.5967 239° Southwest 315 362 32,000 -780 Descending Los Angeles Center
12:06AM 34.8119 -115.6925 240° Southwest 325 374 31,500 -480 Descending Los Angeles Center
12:07AM 34.7600 -115.7981 239° Southwest 352 405 31,100 -840 Descending Los Angeles Center
12:08AM 34.7017 -115.9167 239° Southwest 349 402 29,900 -1,140 Descending Los Angeles Center
12:09AM 34.6547 -116.0133 239° Southwest 338 389 28,800 -1,080 Descending Los Angeles Center
12:10AM 34.6056 -116.1108 239° Southwest 337 388 27,800 -900 Descending Los Angeles Center
12:11AM 34.5553 -116.2108 239° Southwest 340 391 27,000 -420 Descending Los Angeles Center
12:12AM 34.5081 -116.3094 240° Southwest 342 394 27,000  Level Los Angeles Center
12:13AM 34.4600 -116.4083 240° Southwest 341 392 27,000  Level Los Angeles Center
12:14AM 34.4103 -116.5064 238° Southwest 340 391 27,000  Level Los Angeles Center
12:15AM 34.3606 -116.6042 238° Southwest 341 392 27,000  Level Los Angeles Center
12:16AM 34.3128 -116.7008 239° Southwest 335 386 27,000 -420 Level Los Angeles Center
12:17AM 34.2619 -116.8011 238° Southwest 344 396 26,200 -1,860 Descending Los Angeles Center
12:18AM 34.2067 -116.9103 239° Southwest 323 372 23,200 -2,460 Descending Los Angeles Center
12:20AM 34.1556 -117.0150 239° Southwest 304 350 20,700 -1,860 Descending Los Angeles Center
12:21AM 34.1144 -117.0961 239° Southwest 299 344 19,100 -900 Descending Los Angeles Center
12:22AM 34.0769 -117.1786 241° Southwest 288 331 18,700 -1,020 Descending Los Angeles Center
12:23AM 34.0453 -117.2731 248° West 271 312 16,900 -1,620 Descending Los Angeles Center
12:24AM 34.0364 -117.3592 263° West 263 303 15,400 -1,620 Descending Los Angeles Center
12:25AM 34.0278 -117.4653 264° West 265 305 13,700 -1,620 Descending Los Angeles Center
12:26AM 34.0333 -117.5522 274° West 263 303 12,200 -1,440 Descending Los Angeles Center
12:27AM 34.0333 -117.6500 270° West 241 277 10,700 -1,320 Descending Southern California TRACON
12:28AM 34.0167 -117.7333 256° West 241 277 9,500 -1,200 Descending Southern California TRACON
12:29AM 34.0167 -117.8167 270° West 235 270 8,400 -1,140 Descending Southern California TRACON
12:30AM 34.0000 -117.9000 256° West 233 268 7,300 -1,020 Descending Southern California TRACON
12:31AM 34.0000 -117.9833 270° West 231 266 6,300 -840 Descending Southern California TRACON
12:32AM 33.9833 -118.0500 253° West 196 226 5,600 -720 Descending Southern California TRACON
12:33AM 33.9833 -118.1000 270° West 175 201 4,900 -780 Descending Southern California TRACON
12:34AM 33.9833 -118.1667 270° West 171 197 4,000 -900 Descending Southern California TRACON
12:35AM 33.9667 -118.2167 248° West 188 216 3,100 -1,020 Descending Southern California TRACON
12:36AM 33.9667 -118.2833 270° West 190 219 2,000 -1,020 Descending Southern California TRACON
12:37AM 33.9500 -118.3500 253° West 161 185 1,100 -840 Descending Southern California TRACON
12:38AM 33.9500 -118.3833 270° West 134 154 500 -480 Descending Southern California TRACON
12:39AM 33.9492 -118.4386 269° West 147 169 100 -300 Descending Los Angeles Center